Time;durP1;ratioP1;P1;durP2;ratioP2;P2;SDS_P1;SDS_P2;PMS_P1;PMS_P2;Temp;Humidity;BMP_temperature;BMP_pressure;BME280_temperature;BME280_humidity;BME280_pressure;Samples;Min_cycle;Max_cycle;Signal;HPM_P1;HPM_P2
2022/05/30 00:00:39;;;;;;;1.73;1.63;;;;;;;;;;5074016;28;20220;-80
2022/05/30 00:03:07;;;;;;;2.00;1.90;;;;;;;;;;5074537;28;20197;-79
2022/05/30 00:05:34;;;;;;;1.88;1.75;;;;;;;;;;5073034;28;20221;-79
2022/05/30 00:08:02;;;;;;;2.70;1.60;;;;;;;;;;5074741;28;20201;-79
2022/05/30 00:10:30;;;;;;;2.33;2.10;;;;;;;;;;5072127;28;20251;-80
2022/05/30 00:12:58;;;;;;;1.92;1.80;;;;;;;;;;5072809;28;20197;-79
2022/05/30 00:15:25;;;;;;;3.90;1.80;;;;;;;;;;5075513;28;20221;-80
2022/05/30 00:17:57;;;;;;;1.73;1.40;;;;;;;;;;5074530;28;20208;-81
2022/05/30 00:20:26;;;;;;;2.92;2.70;;;;;;;;;;5073585;28;20224;-78
2022/05/30 00:22:53;;;;;;;1.42;1.33;;;;;;;;;;5072355;28;20197;-79
2022/05/30 00:25:21;;;;;;;1.48;1.27;;;;;;;;;;5072428;28;20229;-78
2022/05/30 00:27:49;;;;;;;1.38;1.27;;;;;;;;;;5072814;28;20212;-78
2022/05/30 00:30:17;;;;;;;1.48;1.00;;;;;;;;;;5072996;28;20266;-76
2022/05/30 00:32:44;;;;;;;1.00;1.00;;;;;;;;;;5072009;28;20680;-78
2022/05/30 00:35:13;;;;;;;1.10;1.02;;;;;;;;;;5072568;28;20225;-79
2022/05/30 00:37:40;;;;;;;1.55;1.35;;;;;;;;;;5072357;28;20204;-78
2022/05/30 00:40:10;;;;;;;2.88;1.55;;;;;;;;;;5071746;28;20225;-80
2022/05/30 00:42:38;;;;;;;1.40;1.30;;;;;;;;;;5072974;28;20197;-78
2022/05/30 00:45:09;;;;;;;1.33;1.20;;;;;;;;;;5073548;28;20705;-79
2022/05/30 00:47:37;;;;;;;1.10;1.10;;;;;;;;;;5072686;28;20569;-79
2022/05/30 00:50:06;;;;;;;1.52;1.42;;;;;;;;;;5073079;28;20205;-79
2022/05/30 00:52:37;;;;;;;2.05;1.85;;;;;;;;;;5072750;28;20204;-80
2022/05/30 00:55:09;;;;;;;1.67;1.58;;;;;;;;;;5073353;28;20705;-79
2022/05/30 00:57:37;;;;;;;2.10;1.40;;;;;;;;;;5073231;28;20205;-79
2022/05/30 01:00:10;;;;;;;2.58;1.45;;;;;;;;;;5072328;28;20246;-78
2022/05/30 01:02:40;;;;;;;1.48;1.40;;;;;;;;;;5071110;28;20274;-79
2022/05/30 01:07:54;;;;;;;1.90;1.80;;;;;;;;;;5073329;28;20200;-79
2022/05/30 01:10:23;;;;;;;1.92;1.65;;;;;;;;;;5074037;28;20197;-79
2022/05/30 01:12:53;;;;;;;2.72;1.95;;;;;;;;;;5072922;28;20729;-79
2022/05/30 01:15:26;;;;;;;2.13;1.48;;;;;;;;;;5071931;28;20244;-79
2022/05/30 01:17:59;;;;;;;1.60;1.50;;;;;;;;;;5071773;28;20203;-79
2022/05/30 01:20:37;;;;;;;2.65;2.03;;;;;;;;;;5073642;28;20246;-79
2022/05/30 01:23:44;;;;;;;1.70;1.58;;;;;;;;;;5076675;28;20203;-79
2022/05/30 01:26:32;;;;;;;1.58;1.48;;;;;;;;;;5036311;28;20214;-79
2022/05/30 01:29:03;;;;;;;1.67;1.58;;;;;;;;;;5016018;28;20354;-79
2022/05/30 01:31:31;;;;;;;1.55;1.30;;;;;;;;;;5043224;28;20275;-80
2022/05/30 01:33:59;;;;;;;2.25;1.40;;;;;;;;;;5057598;28;20265;-79
2022/05/30 01:36:29;;;;;;;2.67;1.52;;;;;;;;;;5058125;28;20267;-78
2022/05/30 01:38:57;;;;;;;1.60;1.50;;;;;;;;;;5058297;28;20251;-78
2022/05/30 01:41:24;;;;;;;2.60;2.22;;;;;;;;;;5057545;28;20279;-79
2022/05/30 01:43:52;;;;;;;1.33;1.20;;;;;;;;;;5057341;28;20255;-78
2022/05/30 01:46:23;;;;;;;3.03;1.20;;;;;;;;;;5058030;28;20205;-79
2022/05/30 01:48:51;;;;;;;2.70;1.65;;;;;;;;;;5056619;28;20198;-80
2022/05/30 01:51:21;;;;;;;2.22;2.05;;;;;;;;;;5057047;28;20206;-79
2022/05/30 01:53:49;;;;;;;3.97;2.00;;;;;;;;;;5057472;28;20259;-79
2022/05/30 01:56:16;;;;;;;1.88;1.38;;;;;;;;;;5057533;28;20198;-80
2022/05/30 01:58:43;;;;;;;3.97;2.80;;;;;;;;;;5075882;28;20208;-79
2022/05/30 02:01:18;;;;;;;1.75;1.52;;;;;;;;;;5075943;28;20232;-79
2022/05/30 02:03:47;;;;;;;4.72;2.13;;;;;;;;;;5075075;28;20200;-81
2022/05/30 02:06:15;;;;;;;3.30;1.80;;;;;;;;;;5075886;28;20205;-79
2022/05/30 02:08:42;;;;;;;2.63;1.40;;;;;;;;;;5075650;28;20208;-79
2022/05/30 02:11:11;;;;;;;2.30;2.10;;;;;;;;;;5075680;28;20250;-79
2022/05/30 02:13:39;;;;;;;3.90;1.63;;;;;;;;;;5076294;28;20204;-81
2022/05/30 02:18:57;;;;;;;2.55;1.50;;;;;;;;;;5078722;28;20211;-81
2022/05/30 02:21:24;;;;;;;3.03;1.98;;;;;;;;;;5078306;28;20217;-81
2022/05/30 02:23:51;;;;;;;3.75;2.13;;;;;;;;;;5075833;28;20250;-81
2022/05/30 02:26:19;;;;;;;2.53;2.03;;;;;;;;;;5075873;28;20201;-81
2022/05/30 02:28:47;;;;;;;5.22;3.17;;;;;;;;;;5076411;28;20209;-79
2022/05/30 02:31:14;;;;;;;3.03;2.83;;;;;;;;;;5075929;28;20197;-80
2022/05/30 02:36:40;;;;;;;3.20;1.70;;;;;;;;;;5076113;28;20281;-81
2022/05/30 02:39:08;;;;;;;3.10;2.22;;;;;;;;;;5075791;28;20200;-81
2022/05/30 02:41:35;;;;;;;3.45;2.72;;;;;;;;;;5075637;28;20229;-82
2022/05/30 02:44:03;;;;;;;4.65;2.40;;;;;;;;;;5075775;28;20205;-80
2022/05/30 02:46:30;;;;;;;4.35;2.17;;;;;;;;;;5075909;28;20209;-81
2022/05/30 02:48:57;;;;;;;2.00;1.83;;;;;;;;;;5073434;28;20212;-80
2022/05/30 02:51:26;;;;;;;3.20;2.25;;;;;;;;;;5075232;28;20197;-80
2022/05/30 02:53:53;;;;;;;3.30;2.25;;;;;;;;;;5074328;28;20208;-80
2022/05/30 02:56:21;;;;;;;1.83;1.67;;;;;;;;;;5075363;28;20204;-81
2022/05/30 02:58:49;;;;;;;2.50;1.67;;;;;;;;;;5075021;28;20212;-80
2022/05/30 03:01:17;;;;;;;2.40;2.20;;;;;;;;;;5074850;28;20205;-81
2022/05/30 03:03:45;;;;;;;3.33;2.30;;;;;;;;;;5073958;28;20212;-81
2022/05/30 03:06:12;;;;;;;4.63;2.30;;;;;;;;;;5074725;28;20211;-80
2022/05/30 03:08:41;;;;;;;2.05;1.85;;;;;;;;;;5075211;28;20196;-80
2022/05/30 03:11:08;;;;;;;5.80;2.22;;;;;;;;;;5074911;28;20197;-80
2022/05/30 03:13:36;;;;;;;2.85;1.85;;;;;;;;;;5073959;28;20614;-81
2022/05/30 03:16:03;;;;;;;3.72;2.20;;;;;;;;;;5074549;28;20643;-81
2022/05/30 03:18:31;;;;;;;5.00;2.42;;;;;;;;;;5072279;28;20201;-79
2022/05/30 03:20:59;;;;;;;4.57;2.15;;;;;;;;;;5074067;28;20250;-78
2022/05/30 03:23:26;;;;;;;1.90;1.48;;;;;;;;;;5074133;28;20224;-79
2022/05/30 03:25:54;;;;;;;3.95;2.08;;;;;;;;;;5073838;28;20237;-80
2022/05/30 03:28:22;;;;;;;3.92;2.05;;;;;;;;;;5073798;28;20212;-79
2022/05/30 03:30:49;;;;;;;2.22;1.55;;;;;;;;;;5074158;28;20201;-80
2022/05/30 03:33:16;;;;;;;3.88;1.83;;;;;;;;;;5073328;28;20204;-80
2022/05/30 03:35:44;;;;;;;2.05;1.90;;;;;;;;;;5073957;28;20224;-80
2022/05/30 03:38:11;;;;;;;3.53;1.83;;;;;;;;;;5073959;28;20634;-81
2022/05/30 03:40:38;;;;;;;2.92;1.85;;;;;;;;;;5074250;28;20211;-81
2022/05/30 03:43:09;;;;;;;2.08;1.40;;;;;;;;;;5073324;28;20220;-81
2022/05/30 03:45:37;;;;;;;4.95;1.90;;;;;;;;;;5073540;28;20225;-79
2022/05/30 03:48:06;;;;;;;5.70;1.60;;;;;;;;;;5073684;28;20201;-79
2022/05/30 03:50:33;;;;;;;1.88;1.67;;;;;;;;;;5074124;28;20274;-79
2022/05/30 03:53:04;;;;;;;2.72;1.75;;;;;;;;;;5073117;28;20258;-79
2022/05/30 03:55:34;;;;;;;2.97;2.08;;;;;;;;;;5073728;28;20221;-80
2022/05/30 03:58:02;;;;;;;2.17;1.60;;;;;;;;;;5073317;28;20616;-80
2022/05/30 04:00:32;;;;;;;3.30;2.00;;;;;;;;;;5073226;28;20256;-80
2022/05/30 04:02:59;;;;;;;2.28;2.03;;;;;;;;;;5072770;28;20318;-79
2022/05/30 04:05:27;;;;;;;1.73;1.63;;;;;;;;;;5075074;28;20224;-80
2022/05/30 04:07:54;;;;;;;2.88;1.75;;;;;;;;;;5074155;28;20212;-79
2022/05/30 04:10:22;;;;;;;5.47;2.15;;;;;;;;;;5074835;28;20218;-79
2022/05/30 04:12:50;;;;;;;3.97;1.95;;;;;;;;;;5073887;28;20227;-79
2022/05/30 04:15:22;;;;;;;4.50;2.50;;;;;;;;;;5073100;28;20278;-79
2022/05/30 04:17:50;;;;;;;2.97;2.17;;;;;;;;;;5074055;28;20205;-79
2022/05/30 04:20:18;;;;;;;2.97;1.75;;;;;;;;;;5073769;28;20282;-79
2022/05/30 04:22:46;;;;;;;3.38;1.70;;;;;;;;;;5073292;28;20721;-80
2022/05/30 04:25:13;;;;;;;2.55;2.17;;;;;;;;;;5075115;28;20232;-79
2022/05/30 04:27:40;;;;;;;3.53;2.08;;;;;;;;;;5078723;28;20212;-79
2022/05/30 04:30:10;;;;;;;4.13;2.35;;;;;;;;;;5078176;28;20262;-79
2022/05/30 04:32:37;;;;;;;2.35;1.58;;;;;;;;;;5076864;28;20204;-79
2022/05/30 04:35:08;;;;;;;2.03;1.80;;;;;;;;;;5079311;28;20278;-78
2022/05/30 04:37:36;;;;;;;2.17;2.00;;;;;;;;;;5082085;28;20196;-79
2022/05/30 04:40:04;;;;;;;2.50;1.60;;;;;;;;;;5080044;28;20205;-78
2022/05/30 04:42:31;;;;;;;7.28;2.17;;;;;;;;;;5079103;28;20221;-78
2022/05/30 04:44:58;;;;;;;7.50;2.67;;;;;;;;;;5081338;28;20219;-77
2022/05/30 04:47:25;;;;;;;2.03;1.60;;;;;;;;;;5080401;28;20209;-78
2022/05/30 04:49:53;;;;;;;2.58;2.13;;;;;;;;;;5080569;28;20211;-77
2022/05/30 04:52:21;;;;;;;3.50;1.73;;;;;;;;;;5079596;28;20229;-78
2022/05/30 04:54:49;;;;;;;2.90;1.83;;;;;;;;;;5080366;28;20278;-77
2022/05/30 04:57:16;;;;;;;3.22;1.88;;;;;;;;;;5084586;28;20208;-78
2022/05/30 04:59:43;;;;;;;4.53;1.88;;;;;;;;;;5085500;28;20207;-78
2022/05/30 05:02:12;;;;;;;1.42;1.33;;;;;;;;;;5084550;28;20258;-78
2022/05/30 05:04:41;;;;;;;2.08;1.65;;;;;;;;;;5085387;28;20779;-79
2022/05/30 05:07:09;;;;;;;3.33;2.15;;;;;;;;;;5086362;28;20201;-78
2022/05/30 05:09:47;;;;;;;3.22;1.40;;;;;;;;;;5085618;28;20208;-79
2022/05/30 05:12:14;;;;;;;2.88;1.50;;;;;;;;;;5085512;28;20266;-79
2022/05/30 05:14:41;;;;;;;3.25;2.00;;;;;;;;;;5084336;28;20223;-77
2022/05/30 05:17:10;;;;;;;3.13;2.08;;;;;;;;;;5083054;28;20209;-78
2022/05/30 05:19:39;;;;;;;4.65;3.42;;;;;;;;;;5082607;28;20274;-78
2022/05/30 05:22:07;;;;;;;2.70;1.65;;;;;;;;;;5082636;28;20258;-79
2022/05/30 05:24:34;;;;;;;3.42;2.03;;;;;;;;;;5081851;28;20255;-79
2022/05/30 05:27:03;;;;;;;3.22;1.90;;;;;;;;;;5083919;28;20197;-79
2022/05/30 05:29:30;;;;;;;7.70;2.42;;;;;;;;;;5084510;28;20212;-77
2022/05/30 05:31:59;;;;;;;3.92;1.60;;;;;;;;;;5082111;28;20688;-78
2022/05/30 05:34:26;;;;;;;3.53;1.60;;;;;;;;;;5082120;28;20225;-77
2022/05/30 05:36:53;;;;;;;2.20;1.70;;;;;;;;;;5082646;28;20266;-78
2022/05/30 05:39:21;;;;;;;2.22;1.70;;;;;;;;;;5082955;28;20208;-77
2022/05/30 05:41:48;;;;;;;5.63;1.90;;;;;;;;;;5081788;28;20205;-78
2022/05/30 05:44:18;;;;;;;5.00;1.70;;;;;;;;;;5083495;28;20237;-78
2022/05/30 05:46:45;;;;;;;3.95;1.65;;;;;;;;;;5082425;28;20204;-78
2022/05/30 05:49:13;;;;;;;2.33;1.70;;;;;;;;;;5080634;28;20197;-78
2022/05/30 05:51:41;;;;;;;1.55;1.23;;;;;;;;;;5080542;28;20213;-77
2022/05/30 05:54:09;;;;;;;4.68;1.48;;;;;;;;;;5082588;28;20217;-78
2022/05/30 05:56:37;;;;;;;4.07;2.00;;;;;;;;;;5082182;28;20661;-78
2022/05/30 05:59:04;;;;;;;1.95;1.60;;;;;;;;;;5079720;28;20216;-78
2022/05/30 06:01:35;;;;;;;5.38;1.95;;;;;;;;;;5081707;28;20204;-78
2022/05/30 06:04:06;;;;;;;2.63;1.40;;;;;;;;;;5078927;28;20225;-77
2022/05/30 06:06:33;;;;;;;3.67;1.50;;;;;;;;;;5080053;28;20247;-79
2022/05/30 06:09:03;;;;;;;1.70;1.38;;;;;;;;;;5081558;28;20624;-79
2022/05/30 06:11:31;;;;;;;2.88;1.65;;;;;;;;;;5080948;28;20217;-77
2022/05/30 06:13:59;;;;;;;4.78;1.75;;;;;;;;;;5079996;28;20211;-78
2022/05/30 06:16:29;;;;;;;3.53;2.05;;;;;;;;;;5080464;28;20213;-79
2022/05/30 06:19:00;;;;;;;4.18;1.70;;;;;;;;;;5077832;28;20208;-79
2022/05/30 06:21:30;;;;;;;2.15;1.38;;;;;;;;;;5072628;28;20212;-78
2022/05/30 06:23:58;;;;;;;2.08;1.48;;;;;;;;;;5078532;28;20228;-78
2022/05/30 06:26:26;;;;;;;5.03;1.98;;;;;;;;;;5079317;28;20205;-78
2022/05/30 06:28:55;;;;;;;1.80;1.60;;;;;;;;;;5080117;28;20228;-79
2022/05/30 06:31:26;;;;;;;4.38;2.20;;;;;;;;;;5079514;28;20269;-79
2022/05/30 06:33:53;;;;;;;3.28;1.58;;;;;;;;;;5078277;28;20208;-79
2022/05/30 06:36:24;;;;;;;3.30;1.60;;;;;;;;;;5078680;28;20239;-79
2022/05/30 06:38:52;;;;;;;1.35;1.25;;;;;;;;;;5079902;28;20204;-79
2022/05/30 06:41:21;;;;;;;6.88;2.72;;;;;;;;;;5078035;28;20209;-79
2022/05/30 06:43:51;;;;;;;2.92;1.92;;;;;;;;;;5076039;28;20224;-79
2022/05/30 06:46:18;;;;;;;6.05;1.67;;;;;;;;;;5075918;28;20212;-78
2022/05/30 06:48:48;;;;;;;4.72;1.65;;;;;;;;;;5076766;28;20262;-78
2022/05/30 06:51:18;;;;;;;1.02;1.02;;;;;;;;;;5078328;28;20201;-79
2022/05/30 06:53:46;;;;;;;2.58;1.30;;;;;;;;;;5076888;28;20197;-79
2022/05/30 06:56:15;;;;;;;3.10;2.38;;;;;;;;;;5077194;28;20204;-79
2022/05/30 06:58:43;;;;;;;3.38;1.75;;;;;;;;;;5076574;28;20587;-79
2022/05/30 07:01:11;;;;;;;1.92;1.25;;;;;;;;;;5066719;28;20197;-78
2022/05/30 07:03:38;;;;;;;1.90;1.30;;;;;;;;;;5075559;28;20263;-79
2022/05/30 07:06:08;;;;;;;2.03;1.05;;;;;;;;;;5075860;28;20240;-78
2022/05/30 07:08:35;;;;;;;2.35;2.08;;;;;;;;;;5069014;28;20193;-80
2022/05/30 07:11:06;;;;;;;2.13;1.20;;;;;;;;;;5074726;28;20255;-79
2022/05/30 07:13:33;;;;;;;2.60;1.38;;;;;;;;;;5068133;28;20243;-80
2022/05/30 07:16:01;;;;;;;1.52;1.40;;;;;;;;;;5074367;28;20228;-78
2022/05/30 07:18:28;;;;;;;4.05;1.67;;;;;;;;;;5073977;28;20258;-79
2022/05/30 07:20:57;;;;;;;1.40;1.17;;;;;;;;;;5073288;28;20236;-80
2022/05/30 07:23:25;;;;;;;5.22;1.80;;;;;;;;;;5073706;28;20266;-80
2022/05/30 07:25:58;;;;;;;4.20;1.63;;;;;;;;;;5073494;28;20236;-79
2022/05/30 07:28:29;;;;;;;1.58;1.02;;;;;;;;;;5074218;28;20241;-79
2022/05/30 07:30:56;;;;;;;3.78;1.30;;;;;;;;;;5073851;28;20631;-79
2022/05/30 07:33:23;;;;;;;1.90;1.23;;;;;;;;;;5073003;28;20669;-80
2022/05/30 07:35:51;;;;;;;4.28;1.25;;;;;;;;;;5073740;28;20227;-79
2022/05/30 07:38:18;;;;;;;3.80;2.17;;;;;;;;;;5073279;28;20213;-78
2022/05/30 07:40:45;;;;;;;2.47;1.27;;;;;;;;;;5076530;28;20242;-78
2022/05/30 07:43:14;;;;;;;3.20;1.30;;;;;;;;;;5076835;28;20205;-78
2022/05/30 07:45:43;;;;;;;3.33;2.70;;;;;;;;;;5077926;28;20243;-78
2022/05/30 07:48:10;;;;;;;3.17;1.65;;;;;;;;;;5075510;28;20205;-79
2022/05/30 07:50:38;;;;;;;1.92;1.30;;;;;;;;;;5072944;28;20262;-79
2022/05/30 07:53:06;;;;;;;3.42;1.60;;;;;;;;;;5074539;28;20258;-79
2022/05/30 07:55:33;;;;;;;4.28;1.63;;;;;;;;;;5076552;28;20221;-80
2022/05/30 07:58:04;;;;;;;5.60;3.13;;;;;;;;;;5074967;28;20216;-79
2022/05/30 08:00:34;;;;;;;2.97;1.75;;;;;;;;;;5075498;28;20205;-79
2022/05/30 08:03:05;;;;;;;2.03;1.40;;;;;;;;;;5072491;28;20197;-79
2022/05/30 08:05:32;;;;;;;4.28;1.63;;;;;;;;;;5074373;28;20229;-80
2022/05/30 08:07:59;;;;;;;3.22;2.38;;;;;;;;;;5075289;28;20209;-80
2022/05/30 08:10:27;;;;;;;5.03;2.55;;;;;;;;;;5075084;28;20208;-79
2022/05/30 08:12:54;;;;;;;1.75;1.20;;;;;;;;;;5074752;28;20209;-79
2022/05/30 08:15:22;;;;;;;1.35;1.13;;;;;;;;;;5074626;28;20650;-79
2022/05/30 08:17:49;;;;;;;2.05;1.85;;;;;;;;;;5074736;28;20209;-79
2022/05/30 08:20:18;;;;;;;2.42;1.50;;;;;;;;;;5073410;28;20235;-78
2022/05/30 08:22:45;;;;;;;2.45;1.55;;;;;;;;;;5073913;28;20628;-79
2022/05/30 08:25:17;;;;;;;4.78;1.42;;;;;;;;;;5074390;28;20260;-79
2022/05/30 08:27:45;;;;;;;1.00;0.90;;;;;;;;;;5074941;28;20591;-79
2022/05/30 08:30:17;;;;;;;3.42;2.28;;;;;;;;;;5074777;28;20212;-79
2022/05/30 08:32:46;;;;;;;1.30;1.00;;;;;;;;;;5076231;28;20296;-79
2022/05/30 08:35:18;;;;;;;3.05;1.30;;;;;;;;;;5075650;28;20305;-79
2022/05/30 08:37:47;;;;;;;2.22;1.30;;;;;;;;;;5076112;28;20197;-79
2022/05/30 08:43:07;;;;;;;0.80;0.80;;;;;;;;;;5075176;28;20235;-78
2022/05/30 08:45:38;;;;;;;2.53;1.40;;;;;;;;;;5074627;28;20231;-85
2022/05/30 08:48:12;;;;;;;1.23;1.08;;;;;;;;;;5078266;28;20209;-80
2022/05/30 08:50:45;;;;;;;1.60;1.50;;;;;;;;;;5076561;28;20212;-79
2022/05/30 08:53:54;;;;;;;2.25;1.48;;;;;;;;;;5069588;28;20224;-80
2022/05/30 08:56:26;;;;;;;1.10;1.00;;;;;;;;;;5075063;28;20201;-80
2022/05/30 08:59:34;;;;;;;3.38;1.08;;;;;;;;;;5077084;28;20250;-79
2022/05/30 09:02:10;;;;;;;2.72;1.40;;;;;;;;;;5079801;28;20216;-80
2022/05/30 09:04:42;;;;;;;1.92;1.10;;;;;;;;;;5077289;28;20708;-79
2022/05/30 09:07:16;;;;;;;1.20;1.10;;;;;;;;;;5080158;28;20213;-79
2022/05/30 09:09:48;;;;;;;1.52;1.02;;;;;;;;;;5080628;28;20211;-80
2022/05/30 09:12:22;;;;;;;1.75;1.20;;;;;;;;;;5080779;28;20205;-81
2022/05/30 09:14:54;;;;;;;2.90;1.35;;;;;;;;;;5083037;28;20303;-80
2022/05/30 09:17:28;;;;;;;4.32;1.60;;;;;;;;;;5075659;28;20227;-79
2022/05/30 09:19:58;;;;;;;1.98;1.45;;;;;;;;;;5079503;28;20212;-79
2022/05/30 09:22:27;;;;;;;2.35;1.10;;;;;;;;;;5078709;28;20228;-80
2022/05/30 09:27:39;;;;;;;1.65;1.17;;;;;;;;;;5080753;28;20212;-79
2022/05/30 09:30:10;;;;;;;1.20;1.20;;;;;;;;;;5080285;28;20716;-79
2022/05/30 09:32:43;;;;;;;1.42;1.00;;;;;;;;;;5079083;28;20237;-79
2022/05/30 09:35:25;;;;;;;1.35;1.13;;;;;;;;;;5079032;28;20304;-79
2022/05/30 09:38:08;;;;;;;1.55;1.40;;;;;;;;;;5077850;28;20212;-80
2022/05/30 09:40:47;;;;;;;2.55;1.00;;;;;;;;;;5078489;28;20269;-79
2022/05/30 09:43:27;;;;;;;1.90;1.55;;;;;;;;;;5081929;28;20618;-80
2022/05/30 09:45:54;;;;;;;1.48;1.10;;;;;;;;;;5082955;28;20278;-79
2022/05/30 09:48:23;;;;;;;1.90;1.20;;;;;;;;;;5082357;28;20254;-79
2022/05/30 09:50:54;;;;;;;1.40;1.30;;;;;;;;;;5082621;28;20258;-80
2022/05/30 09:53:45;;;;;;;1.85;1.30;;;;;;;;;;5081106;28;20205;-79
2022/05/30 09:56:15;;;;;;;1.83;1.40;;;;;;;;;;5081339;28;20235;-78
2022/05/30 09:58:46;;;;;;;2.95;1.60;;;;;;;;;;5080291;28;20789;-80
2022/05/30 10:01:22;;;;;;;2.10;1.60;;;;;;;;;;5081302;28;20209;-79
2022/05/30 10:03:52;;;;;;;1.23;1.13;;;;;;;;;;5079926;28;20212;-79
2022/05/30 10:06:22;;;;;;;8.13;2.20;;;;;;;;;;5085792;28;20338;-79
2022/05/30 10:08:52;;;;;;;4.93;2.92;;;;;;;;;;5088900;28;20209;-79
2022/05/30 10:11:32;;;;;;;2.10;1.20;;;;;;;;;;5089185;28;20211;-79
2022/05/30 10:14:00;;;;;;;1.77;1.10;;;;;;;;;;5079955;28;20216;-79
2022/05/30 10:16:36;;;;;;;1.65;1.10;;;;;;;;;;5086083;28;20231;-79
2022/05/30 10:19:09;;;;;;;2.92;1.20;;;;;;;;;;5086117;28;20216;-79
2022/05/30 10:30:24;;;;;;;7.20;1.70;;;;;;;;;;5097128;28;20342;-81
2022/05/30 10:33:05;;;;;;;1.95;1.40;;;;;;;;;;5089769;28;20648;-81
2022/05/30 10:35:38;;;;;;;3.25;1.15;;;;;;;;;;5099473;28;20274;-81
2022/05/30 10:38:21;;;;;;;5.40;2.75;;;;;;;;;;5099522;28;20215;-82
2022/05/30 10:41:03;;;;;;;3.10;1.25;;;;;;;;;;5095987;28;20208;-82
2022/05/30 10:43:47;;;;;;;3.03;1.33;;;;;;;;;;5088866;28;20204;-83
2022/05/30 10:46:20;;;;;;;1.15;1.08;;;;;;;;;;5093922;28;20687;-82
2022/05/30 10:48:55;;;;;;;1.20;0.98;;;;;;;;;;5095795;28;20203;-83
2022/05/30 10:51:26;;;;;;;1.50;1.00;;;;;;;;;;5096298;28;20276;-82
2022/05/30 10:53:59;;;;;;;2.00;1.38;;;;;;;;;;5095377;28;20344;-82
2022/05/30 10:56:31;;;;;;;1.63;0.90;;;;;;;;;;5095780;28;20231;-82
2022/05/30 10:59:06;;;;;;;1.88;1.00;;;;;;;;;;5095891;28;20200;-83
2022/05/30 11:01:44;;;;;;;1.10;1.00;;;;;;;;;;5088466;28;20203;-83
2022/05/30 11:04:25;;;;;;;0.90;0.90;;;;;;;;;;5095737;28;20208;-83
2022/05/30 11:06:55;;;;;;;1.67;1.05;;;;;;;;;;5095160;28;20228;-82
2022/05/30 11:09:29;;;;;;;1.08;0.80;;;;;;;;;;5095539;28;20664;-83
2022/05/30 11:12:03;;;;;;;1.80;0.80;;;;;;;;;;5095080;28;20679;-83
2022/05/30 11:14:40;;;;;;;1.10;0.90;;;;;;;;;;5095296;28;20656;-82
2022/05/30 11:17:14;;;;;;;1.02;0.82;;;;;;;;;;5091351;28;20204;-83
2022/05/30 11:20:00;;;;;;;1.48;1.30;;;;;;;;;;5090289;28;20199;-82
2022/05/30 11:22:36;;;;;;;1.60;1.17;;;;;;;;;;5094828;28;20224;-83
2022/05/30 11:25:05;;;;;;;1.40;0.98;;;;;;;;;;5094947;28;20240;-83
2022/05/30 11:27:39;;;;;;;1.63;1.00;;;;;;;;;;5094970;28;20235;-82
2022/05/30 11:30:27;;;;;;;1.15;1.00;;;;;;;;;;5093200;28;20201;-83
2022/05/30 11:33:31;;;;;;;1.90;1.00;;;;;;;;;;5085106;28;20200;-82
2022/05/30 11:36:16;;;;;;;1.65;1.00;;;;;;;;;;5085669;28;20216;-82
2022/05/30 11:39:12;;;;;;;1.58;1.00;;;;;;;;;;5093323;28;20212;-81
2022/05/30 11:41:56;;;;;;;2.60;1.10;;;;;;;;;;5094803;28;20637;-83
2022/05/30 11:44:41;;;;;;;1.48;1.25;;;;;;;;;;5095531;28;20291;-82
2022/05/30 11:47:26;;;;;;;2.75;0.95;;;;;;;;;;5097544;28;20227;-80
2022/05/30 11:50:28;;;;;;;3.47;1.70;;;;;;;;;;5099265;28;20676;-81
2022/05/30 11:53:28;;;;;;;1.30;1.20;;;;;;;;;;5073941;28;20210;-81
2022/05/30 11:56:03;;;;;;;0.65;0.65;;;;;;;;;;5098490;28;20224;-81
2022/05/30 11:58:59;;;;;;;0.70;0.60;;;;;;;;;;5098386;28;20608;-81
2022/05/30 12:01:28;;;;;;;0.80;0.80;;;;;;;;;;5098573;28;20208;-81
2022/05/30 12:04:30;;;;;;;2.45;1.10;;;;;;;;;;5095040;28;20208;-80
2022/05/30 12:07:30;;;;;;;1.15;0.95;;;;;;;;;;5096940;28;20219;-81
2022/05/30 12:10:14;;;;;;;1.48;1.02;;;;;;;;;;5095106;28;20207;-80
2022/05/30 12:13:06;;;;;;;1.33;0.90;;;;;;;;;;5096943;28;20208;-79
2022/05/30 12:16:11;;;;;;;1.75;1.65;;;;;;;;;;5099540;28;20228;-80
2022/05/30 12:24:40;;;;;;;0.60;0.60;;;;;;;;;;5097022;28;20227;-81
2022/05/30 12:27:33;;;;;;;2.15;1.40;;;;;;;;;;5096860;28;20244;-80
2022/05/30 12:30:01;;;;;;;1.58;1.27;;;;;;;;;;5096961;28;20240;-79
2022/05/30 12:32:41;;;;;;;1.23;1.08;;;;;;;;;;5095612;28;20588;-79
2022/05/30 12:35:26;;;;;;;1.52;1.05;;;;;;;;;;5091345;28;20246;-79
2022/05/30 12:38:09;;;;;;;0.70;0.70;;;;;;;;;;5095621;28;20291;-80
2022/05/30 12:40:39;;;;;;;2.65;1.00;;;;;;;;;;5096587;28;20211;-81
2022/05/30 12:43:35;;;;;;;0.80;0.80;;;;;;;;;;5094691;28;20212;-80
2022/05/30 12:46:22;;;;;;;1.55;1.00;;;;;;;;;;5091438;28;20251;-80
2022/05/30 12:49:06;;;;;;;2.20;1.05;;;;;;;;;;5095183;28;20273;-80
2022/05/30 12:52:04;;;;;;;1.13;0.75;;;;;;;;;;5089339;28;20227;-80
2022/05/30 12:54:47;;;;;;;0.80;0.80;;;;;;;;;;5095502;28;20234;-82
2022/05/30 12:57:38;;;;;;;1.30;1.20;;;;;;;;;;5089041;28;20208;-80
2022/05/30 13:00:46;;;;;;;1.42;1.00;;;;;;;;;;5092436;28;20204;-81
2022/05/30 13:03:46;;;;;;;0.88;0.88;;;;;;;;;;5096290;28;20207;-80
2022/05/30 13:06:23;;;;;;;2.05;1.95;;;;;;;;;;5096000;28;20306;-80
2022/05/30 13:09:10;;;;;;;1.45;1.30;;;;;;;;;;5085808;28;20220;-80
2022/05/30 13:12:24;;;;;;;1.85;1.00;;;;;;;;;;5095304;28;20281;-81
2022/05/30 13:15:14;;;;;;;1.20;1.13;;;;;;;;;;5083858;28;20691;-80
2022/05/30 13:17:53;;;;;;;1.27;1.00;;;;;;;;;;5096934;28;20243;-81
2022/05/30 13:20:23;;;;;;;1.00;0.90;;;;;;;;;;5094383;28;20740;-80
2022/05/30 13:22:54;;;;;;;0.75;0.75;;;;;;;;;;5099524;28;20211;-81
2022/05/30 13:25:28;;;;;;;1.42;1.33;;;;;;;;;;5099460;28;20780;-80
2022/05/30 13:27:56;;;;;;;2.00;1.10;;;;;;;;;;5097843;28;20228;-80
2022/05/30 13:30:28;;;;;;;1.65;1.00;;;;;;;;;;5098891;28;20235;-81
2022/05/30 13:32:55;;;;;;;1.52;1.20;;;;;;;;;;5097316;28;20204;-81
2022/05/30 13:35:32;;;;;;;1.42;1.20;;;;;;;;;;5097618;28;20691;-81
2022/05/30 13:38:03;;;;;;;1.30;1.15;;;;;;;;;;5099666;28;20203;-81
2022/05/30 13:40:33;;;;;;;1.15;1.02;;;;;;;;;;5098369;28;20277;-81
2022/05/30 13:43:03;;;;;;;2.28;1.00;;;;;;;;;;5098359;28;20690;-81
2022/05/30 13:45:35;;;;;;;2.90;2.20;;;;;;;;;;5099112;28;20224;-81
2022/05/30 13:48:06;;;;;;;1.92;1.58;;;;;;;;;;5098080;28;20357;-81
2022/05/30 13:50:46;;;;;;;1.30;1.20;;;;;;;;;;5092986;28;20215;-81
2022/05/30 13:53:14;;;;;;;1.40;1.30;;;;;;;;;;5093442;28;20257;-81
2022/05/30 13:55:53;;;;;;;1.75;1.00;;;;;;;;;;5098487;28;20243;-81
2022/05/30 13:58:21;;;;;;;1.02;1.00;;;;;;;;;;5099195;28;20208;-81
2022/05/30 14:00:49;;;;;;;0.95;0.95;;;;;;;;;;5098375;28;20668;-81
2022/05/30 14:03:17;;;;;;;0.90;0.90;;;;;;;;;;5096936;28;20600;-81
2022/05/30 14:05:46;;;;;;;1.60;1.50;;;;;;;;;;5092125;28;20597;-81
2022/05/30 14:08:17;;;;;;;2.75;0.90;;;;;;;;;;5097782;28;20582;-81
2022/05/30 14:10:46;;;;;;;1.38;1.27;;;;;;;;;;5098223;28;20215;-81
2022/05/30 14:13:34;;;;;;;1.75;1.00;;;;;;;;;;5098596;28;20200;-81
2022/05/30 14:16:04;;;;;;;0.85;0.85;;;;;;;;;;5096814;28;20216;-81
2022/05/30 14:18:44;;;;;;;2.88;1.05;;;;;;;;;;5098323;28;20285;-81
2022/05/30 14:21:12;;;;;;;1.45;1.10;;;;;;;;;;5095918;28;20215;-81
2022/05/30 14:23:40;;;;;;;2.83;1.15;;;;;;;;;;5100548;28;20311;-81
2022/05/30 14:26:13;;;;;;;2.35;1.40;;;;;;;;;;5101447;28;20266;-80
2022/05/30 14:29:00;;;;;;;1.77;1.38;;;;;;;;;;5099850;28;20314;-81
2022/05/30 14:31:31;;;;;;;1.33;1.10;;;;;;;;;;5101528;28;20199;-81
2022/05/30 14:34:13;;;;;;;1.02;0.98;;;;;;;;;;5101060;28;20215;-82
2022/05/30 14:36:44;;;;;;;1.75;1.15;;;;;;;;;;5096574;28;20228;-82
2022/05/30 14:39:16;;;;;;;4.40;1.95;;;;;;;;;;5101081;28;20224;-81
2022/05/30 14:42:00;;;;;;;1.20;1.10;;;;;;;;;;5099985;28;20208;-82
2022/05/30 14:44:36;;;;;;;0.88;0.88;;;;;;;;;;5103950;28;20295;-81
2022/05/30 14:47:08;;;;;;;1.60;1.10;;;;;;;;;;5100311;28;20204;-81
2022/05/30 14:49:43;;;;;;;1.60;1.50;;;;;;;;;;5100137;28;20319;-81
2022/05/30 14:52:10;;;;;;;1.55;1.45;;;;;;;;;;5099665;28;20215;-81
2022/05/30 14:54:45;;;;;;;1.48;1.30;;;;;;;;;;5099204;28;20204;-82
2022/05/30 14:57:17;;;;;;;1.23;1.17;;;;;;;;;;5099245;28;20297;-81
2022/05/30 14:59:45;;;;;;;1.17;1.08;;;;;;;;;;5099693;28;20251;-82
2022/05/30 15:04:02;;;;;;;1.45;1.10;;;;;;;;;;5092485;28;20197;-82
2022/05/30 15:05:04;;;;;;;1.17;0.98;;;;;;;;;;5095135;28;20219;-81
2022/05/30 15:07:39;;;;;;;1.20;1.08;;;;;;;;;;5100133;28;20595;-82
2022/05/30 15:10:07;;;;;;;1.40;1.05;;;;;;;;;;5109033;28;20231;-80
2022/05/30 15:12:35;;;;;;;1.58;1.20;;;;;;;;;;5106505;28;20208;-81
2022/05/30 15:15:03;;;;;;;1.85;1.38;;;;;;;;;;5100383;28;20227;-81
2022/05/30 15:17:30;;;;;;;2.22;1.20;;;;;;;;;;5107579;28;20206;-82
2022/05/30 15:20:00;;;;;;;1.58;1.48;;;;;;;;;;5102251;28;20222;-81
2022/05/30 15:22:27;;;;;;;1.40;1.27;;;;;;;;;;5097537;28;20216;-80
2022/05/30 15:24:57;;;;;;;1.67;1.23;;;;;;;;;;5095023;28;20251;-82
2022/05/30 15:27:26;;;;;;;1.10;1.00;;;;;;;;;;5091381;28;20208;-80
2022/05/30 15:29:55;;;;;;;1.20;1.10;;;;;;;;;;5093602;28;20661;-81
2022/05/30 15:32:26;;;;;;;3.65;1.50;;;;;;;;;;5100816;28;20204;-81
2022/05/30 15:34:54;;;;;;;1.40;1.30;;;;;;;;;;5104703;28;20240;-81
2022/05/30 15:37:24;;;;;;;1.92;1.60;;;;;;;;;;5102386;28;20212;-80
2022/05/30 15:39:52;;;;;;;2.78;1.75;;;;;;;;;;5098730;28;20226;-80
2022/05/30 15:42:22;;;;;;;1.33;1.20;;;;;;;;;;5095461;28;20197;-81